createdAt,value
2022-12-23T00:01:46.229Z,11.65
2022-12-23T00:04:12.788Z,10.43
2022-12-23T00:06:39.578Z,8.90
2022-12-23T00:09:07.093Z,8.55
2022-12-23T00:11:33.554Z,8.25
2022-12-23T00:14:21.975Z,11.98
2022-12-23T00:16:50.729Z,7.47
2022-12-23T00:19:17.549Z,7.60
2022-12-23T00:21:44.307Z,9.65
2022-12-23T00:24:11.521Z,7.70
2022-12-23T00:26:38.584Z,11.85
2022-12-23T00:29:05.720Z,10.23
2022-12-23T00:31:32.375Z,6.95
2022-12-23T00:33:59.151Z,7.90
2022-12-23T00:36:30.241Z,13.73
2022-12-23T00:39:16.960Z,10.27
2022-12-23T00:42:02.087Z,5.70
2022-12-23T00:44:29.091Z,7.25
2022-12-23T00:46:55.591Z,9.82
2022-12-23T00:49:40.889Z,7.70
2022-12-23T00:52:12.665Z,6.03
2022-12-23T00:54:40.600Z,10.32
2022-12-23T00:57:07.284Z,6.97
2022-12-23T00:59:34.122Z,7.65
2022-12-23T01:02:19.869Z,7.50
2022-12-23T01:05:05.165Z,6.75
2022-12-23T01:07:31.676Z,6.47
2022-12-23T01:09:58.227Z,10.52
2022-12-23T01:12:24.813Z,7.20
2022-12-23T01:14:51.236Z,8.57
2022-12-23T01:17:18.489Z,7.85
2022-12-23T01:19:45.218Z,6.45
2022-12-23T01:22:11.819Z,5.85
2022-12-23T01:24:38.665Z,10.27
2022-12-23T01:27:05.121Z,5.60
2022-12-23T01:29:31.722Z,5.07
2022-12-23T01:31:58.195Z,6.65
2022-12-23T01:34:24.808Z,5.40
2022-12-23T01:36:51.371Z,5.25
2022-12-23T01:39:18.172Z,5.72
2022-12-23T01:42:03.102Z,6.93
2022-12-23T01:44:48.039Z,4.60
2022-12-23T01:47:26.695Z,3.72
2022-12-23T01:49:59.837Z,6.75
2022-12-23T01:52:27.704Z,6.45
2022-12-23T01:54:56.106Z,7.20
2022-12-23T01:57:23.727Z,4.93
2022-12-23T02:00:09.058Z,6.07
2022-12-23T02:02:56.021Z,6.63
2022-12-23T02:05:24.221Z,6.18
2022-12-23T02:08:11.942Z,6.43
2022-12-23T02:10:57.423Z,5.68
2022-12-23T02:14:10.098Z,7.47
2022-12-23T02:16:43.284Z,7.72
2022-12-23T02:19:24.298Z,7.82
2022-12-23T02:22:25.082Z,10.93
2022-12-23T02:27:30.890Z,8.82
2022-12-23T02:30:20.397Z,5.40
2022-12-23T02:33:08.936Z,6.47
2022-12-23T02:36:00.524Z,6.32
2022-12-23T02:38:32.491Z,8.40
2022-12-23T02:41:29.140Z,7.20
2022-12-23T02:44:14.177Z,6.70
2022-12-23T02:46:56.974Z,5.93
2022-12-23T02:49:29.135Z,7.50
2022-12-23T02:51:59.705Z,9.07
2022-12-23T02:54:32.469Z,6.57
2022-12-23T02:57:02.941Z,5.35
2022-12-23T02:59:36.459Z,5.45
2022-12-23T03:02:03.260Z,7.47
2022-12-23T03:04:30.031Z,8.68
2022-12-23T03:07:02.834Z,6.97
2022-12-23T03:10:00.576Z,9.43
2022-12-23T03:13:00.221Z,6.68
2022-12-23T03:15:45.150Z,5.78
2022-12-23T03:18:28.583Z,5.43
2022-12-23T03:21:06.818Z,7.20
2022-12-23T03:23:42.637Z,7.45
2022-12-23T03:26:16.137Z,5.20
2022-12-23T03:29:01.832Z,7.45
2022-12-23T03:31:31.566Z,7.63
2022-12-23T03:34:07.242Z,5.93
2022-12-23T03:36:57.163Z,7.13
2022-12-23T03:39:28.346Z,6.25
2022-12-23T03:42:02.065Z,7.32
2022-12-23T03:44:34.865Z,4.60
2022-12-23T03:47:09.624Z,8.75
2022-12-23T03:49:43.877Z,7.28
2022-12-23T03:52:21.251Z,7.13
2022-12-23T03:54:58.096Z,6.43
2022-12-23T03:57:47.342Z,7.28
2022-12-23T04:00:13.980Z,11.73
2022-12-23T04:02:59.707Z,5.72
2022-12-23T04:05:35.695Z,5.80
2022-12-23T04:08:11.471Z,5.45
2022-12-23T04:10:38.368Z,6.88
2022-12-23T04:13:05.516Z,7.95
2022-12-23T04:15:32.404Z,10.55
2022-12-23T04:17:59.277Z,10.07
2022-12-23T04:20:25.920Z,9.77
2022-12-23T04:22:52.668Z,9.68
2022-12-23T04:25:19.750Z,8.02
2022-12-23T04:27:46.276Z,8.05
2022-12-23T04:30:16.429Z,8.13
2022-12-23T04:32:43.106Z,8.30
2022-12-23T04:35:10.631Z,9.35
2022-12-23T04:37:37.912Z,10.68
2022-12-23T04:40:05.511Z,8.30
2022-12-23T04:42:31.990Z,9.13
2022-12-23T04:44:58.875Z,7.55
2022-12-23T04:47:25.311Z,10.00
2022-12-23T04:49:51.807Z,8.75
2022-12-23T04:52:18.440Z,11.23
2022-12-23T04:54:46.468Z,7.50
2022-12-23T04:57:13.927Z,7.90
2022-12-23T04:59:40.635Z,9.13
2022-12-23T05:02:08.140Z,6.43
2022-12-23T05:04:34.983Z,7.53
2022-12-23T05:07:01.484Z,6.47
2022-12-23T05:09:28.242Z,9.60
2022-12-23T05:11:55.085Z,5.28
2022-12-23T05:14:21.830Z,10.52
2022-12-23T05:16:48.517Z,7.90
2022-12-23T05:19:15.488Z,7.25
2022-12-23T05:21:42.052Z,9.77
2022-12-23T05:24:08.906Z,7.70
2022-12-23T05:26:35.339Z,8.45
2022-12-23T05:29:01.808Z,8.30
2022-12-23T05:31:28.493Z,4.88
2022-12-23T05:33:56.687Z,6.07
2022-12-23T05:36:26.163Z,6.38
2022-12-23T05:38:52.700Z,7.57
2022-12-23T05:41:19.204Z,7.65
2022-12-23T05:43:45.798Z,8.77
2022-12-23T05:46:12.684Z,6.55
2022-12-23T05:48:39.469Z,5.75
2022-12-23T05:51:06.073Z,7.13
2022-12-23T05:53:32.772Z,9.23
2022-12-23T05:56:03.124Z,9.00
2022-12-23T05:58:29.793Z,7.88
2022-12-23T06:00:56.511Z,7.10
2022-12-23T06:03:23.278Z,5.35
2022-12-23T06:05:51.754Z,6.68
2022-12-23T06:08:18.424Z,7.40
2022-12-23T06:10:45.016Z,8.23
2022-12-23T06:13:11.519Z,8.07
2022-12-23T06:15:38.328Z,9.85
2022-12-23T06:18:04.844Z,7.20
2022-12-23T06:20:31.501Z,7.20
2022-12-23T06:22:57.931Z,9.27
2022-12-23T06:25:24.556Z,7.88
2022-12-23T06:27:51.030Z,8.45
2022-12-23T06:30:17.539Z,6.75
2022-12-23T06:32:44.144Z,6.45
2022-12-23T06:35:10.770Z,7.45
2022-12-23T06:37:37.401Z,5.95
2022-12-23T06:40:04.384Z,9.45
2022-12-23T06:42:31.053Z,8.43
2022-12-23T06:44:57.761Z,8.82
2022-12-23T06:47:24.487Z,5.82
2022-12-23T06:49:51.122Z,8.02
2022-12-23T06:52:17.634Z,6.90
2022-12-23T06:54:44.385Z,7.28
2022-12-23T06:57:11.466Z,8.23
2022-12-23T06:59:37.967Z,10.23
2022-12-23T07:02:04.848Z,8.77
2022-12-23T07:04:31.482Z,11.68
2022-12-23T07:06:58.723Z,7.43
2022-12-23T07:09:25.255Z,8.32
2022-12-23T07:11:52.285Z,11.55
2022-12-23T07:14:18.770Z,9.43
2022-12-23T07:16:45.482Z,9.75
2022-12-23T07:19:12.228Z,9.05
2022-12-23T07:21:38.884Z,9.02
2022-12-23T07:24:06.279Z,6.65
2022-12-23T07:26:32.829Z,9.05
2022-12-23T07:28:59.443Z,9.80
2022-12-23T07:31:26.096Z,8.32
2022-12-23T07:33:52.545Z,10.07
2022-12-23T07:36:19.058Z,7.82
2022-12-23T07:38:50.164Z,8.05
2022-12-23T07:41:16.731Z,7.13
2022-12-23T07:43:43.329Z,10.27
2022-12-23T07:46:10.053Z,6.60
2022-12-23T07:48:36.748Z,6.88
2022-12-23T07:51:04.539Z,6.30
2022-12-23T07:53:31.217Z,8.57
2022-12-23T07:55:57.718Z,10.15
2022-12-23T07:58:24.675Z,7.40
2022-12-23T08:00:51.274Z,8.20
2022-12-23T08:03:17.968Z,10.77
2022-12-23T08:05:44.573Z,9.55
2022-12-23T08:08:11.231Z,8.32
2022-12-23T08:10:41.459Z,10.02
2022-12-23T08:13:11.172Z,9.05
2022-12-23T08:15:37.703Z,7.28
2022-12-23T08:18:04.223Z,9.40
2022-12-23T08:20:30.648Z,8.45
2022-12-23T08:22:57.263Z,9.88
2022-12-23T08:25:23.732Z,7.72
2022-12-23T08:27:51.238Z,8.40
2022-12-23T08:32:45.466Z,6.15
2022-12-23T08:35:11.921Z,8.48
2022-12-23T08:37:38.475Z,8.25
2022-12-23T08:40:05.374Z,8.63
2022-12-23T08:42:32.014Z,11.70
2022-12-23T08:44:58.649Z,9.13
2022-12-23T08:47:25.317Z,8.48
2022-12-23T08:49:51.708Z,12.40
2022-12-23T08:52:18.240Z,12.10
2022-12-23T08:54:44.762Z,10.40
2022-12-23T08:57:11.423Z,8.63
2022-12-23T08:59:37.997Z,11.40
2022-12-23T09:02:04.654Z,11.27
2022-12-23T09:04:32.291Z,10.88
2022-12-23T09:06:58.707Z,10.50
2022-12-23T09:09:25.486Z,11.10
2022-12-23T09:11:51.943Z,9.32
2022-12-23T09:14:18.625Z,8.80
2022-12-23T09:16:45.306Z,9.98
2022-12-23T09:19:11.770Z,11.00
2022-12-23T09:21:38.458Z,7.53
2022-12-23T09:24:05.357Z,8.60
2022-12-23T09:26:32.414Z,10.60
2022-12-23T09:28:59.781Z,10.07
2022-12-23T09:31:32.651Z,11.27
2022-12-23T09:34:03.393Z,10.32
2022-12-23T09:36:30.211Z,7.30
2022-12-23T09:38:58.021Z,8.90
2022-12-23T09:41:48.747Z,9.93
2022-12-23T09:44:30.564Z,10.30
2022-12-23T09:47:01.879Z,11.85
2022-12-23T09:49:29.064Z,12.90
2022-12-23T09:52:01.679Z,14.88
2022-12-23T09:54:33.216Z,14.68
2022-12-23T09:57:16.207Z,17.98
2022-12-23T10:00:07.122Z,12.43
2022-12-23T10:02:52.562Z,15.52
2022-12-23T10:05:22.320Z,9.88
2022-12-23T10:07:48.723Z,9.50
2022-12-23T10:10:25.251Z,8.90
2022-12-23T10:12:53.369Z,8.50
2022-12-23T10:15:27.323Z,10.18
2022-12-23T10:17:59.015Z,8.63
2022-12-23T10:20:39.479Z,8.88
2022-12-23T10:23:14.758Z,10.80
2022-12-23T10:25:49.095Z,8.77
2022-12-23T10:28:15.569Z,8.57
2022-12-23T10:31:11.203Z,9.13
2022-12-23T10:33:49.924Z,13.27
2022-12-23T10:36:29.254Z,11.70
2022-12-23T10:39:08.552Z,12.10
2022-12-23T10:41:55.613Z,10.07
2022-12-23T10:44:40.730Z,11.80
2022-12-23T10:47:25.392Z,10.02
2022-12-23T10:50:10.132Z,11.43
2022-12-23T10:52:41.201Z,9.80
2022-12-23T10:55:32.889Z,14.43
2022-12-23T10:58:17.549Z,15.18
2022-12-23T11:01:13.905Z,15.40
2022-12-23T11:03:52.767Z,16.58
2022-12-23T11:06:19.655Z,13.07
2022-12-23T11:08:46.681Z,9.57
2022-12-23T11:11:13.280Z,11.85
2022-12-23T11:13:42.260Z,12.15
2022-12-23T11:16:28.883Z,10.90
2022-12-23T11:19:13.969Z,12.02
2022-12-23T11:21:55.325Z,9.93
2022-12-23T11:24:23.880Z,10.32
2022-12-23T11:27:05.837Z,11.40
2022-12-23T11:29:46.351Z,8.80
2022-12-23T11:32:25.740Z,10.68
2022-12-23T11:34:55.904Z,13.13
2022-12-23T11:37:35.497Z,11.85
2022-12-23T11:40:05.518Z,8.68
2022-12-23T11:42:34.483Z,9.75
2022-12-23T11:45:01.203Z,9.65
2022-12-23T11:47:41.549Z,9.77
2022-12-23T11:50:40.773Z,8.88
2022-12-23T11:53:19.980Z,5.85
2022-12-23T11:56:01.190Z,7.18
2022-12-23T11:58:30.009Z,7.80
2022-12-23T12:01:06.107Z,6.50
2022-12-23T12:03:42.212Z,5.90
2022-12-23T12:06:14.979Z,4.75
2022-12-23T12:08:42.284Z,8.73
2022-12-23T12:11:17.069Z,6.13
2022-12-23T12:14:04.818Z,4.97
2022-12-23T12:16:31.623Z,5.38
2022-12-23T12:19:20.700Z,7.00
2022-12-23T12:21:49.867Z,7.80
2022-12-23T12:24:30.039Z,6.38
2022-12-23T12:27:01.902Z,5.10
2022-12-23T12:29:34.315Z,6.82
2022-12-23T12:32:02.152Z,5.63
2022-12-23T12:34:37.385Z,7.13
2022-12-23T12:37:22.780Z,9.60
2022-12-23T12:39:54.866Z,6.25
2022-12-23T12:42:26.858Z,8.77
2022-12-23T12:45:13.431Z,6.93
2022-12-23T12:47:55.739Z,9.50
2022-12-23T12:50:30.495Z,6.55
2022-12-23T12:53:03.846Z,8.13
2022-12-23T12:55:34.898Z,7.80
2022-12-23T12:58:04.767Z,6.22
2022-12-23T13:00:41.569Z,9.05
2022-12-23T13:03:51.855Z,8.95
2022-12-23T13:06:58.752Z,7.60
2022-12-23T13:09:35.469Z,7.43
2022-12-23T13:12:10.239Z,4.70
2022-12-23T13:15:23.331Z,6.30
2022-12-23T13:18:23.621Z,9.20
2022-12-23T13:21:03.503Z,6.90
2022-12-23T13:23:48.443Z,5.25
2022-12-23T13:26:36.015Z,3.25
2022-12-23T13:29:25.463Z,6.82
2022-12-23T13:32:00.742Z,5.38
2022-12-23T13:35:02.678Z,2.90
2022-12-23T13:37:59.513Z,4.28
2022-12-23T13:40:42.858Z,7.63
2022-12-23T13:43:14.790Z,4.40
2022-12-23T13:45:42.501Z,4.22
2022-12-23T13:48:15.345Z,4.00
2022-12-23T13:50:46.414Z,4.78
2022-12-23T13:53:40.074Z,5.20
2022-12-23T13:56:29.663Z,5.65
2022-12-23T13:58:57.129Z,3.13
2022-12-23T14:01:42.716Z,4.78
2022-12-23T14:04:35.795Z,5.80
2022-12-23T14:07:22.105Z,16.75
2022-12-23T14:09:58.319Z,10.38
2022-12-23T14:12:31.363Z,4.35
2022-12-23T14:15:19.431Z,4.72
2022-12-23T14:18:02.524Z,5.75
2022-12-23T14:20:51.915Z,2.85
2022-12-23T14:23:40.121Z,4.05
2022-12-23T14:26:45.262Z,3.28
2022-12-23T14:29:39.334Z,5.70
2022-12-23T14:32:21.156Z,3.17
2022-12-23T14:35:17.385Z,3.10
2022-12-23T14:38:05.335Z,2.42
2022-12-23T14:40:37.749Z,2.38
2022-12-23T14:43:23.081Z,2.97
2022-12-23T14:45:50.641Z,3.70
2022-12-23T14:48:36.072Z,3.03
2022-12-23T14:51:09.740Z,3.88
2022-12-23T14:53:57.660Z,1.83
2022-12-23T14:56:39.122Z,2.50
2022-12-23T14:59:29.014Z,2.85
2022-12-23T15:01:58.624Z,2.60
2022-12-23T15:04:43.699Z,4.10
2022-12-23T15:07:29.309Z,2.55
2022-12-23T15:10:01.413Z,2.90
2022-12-23T15:12:33.882Z,3.70
2022-12-23T15:15:04.736Z,4.05
2022-12-23T15:17:34.869Z,4.55
2022-12-23T15:20:10.556Z,4.53
2022-12-23T15:22:38.381Z,5.63
2022-12-23T15:25:18.340Z,4.13
2022-12-23T15:27:45.099Z,5.53
2022-12-23T15:30:14.098Z,6.80
2022-12-23T15:32:43.083Z,5.65
2022-12-23T15:35:14.854Z,6.45
2022-12-23T15:37:41.383Z,5.32
2022-12-23T15:40:36.470Z,5.65
2022-12-23T15:43:19.999Z,5.88
2022-12-23T15:45:46.900Z,5.45
2022-12-23T15:48:22.585Z,6.47
2022-12-23T15:50:51.913Z,7.53
2022-12-23T15:53:20.662Z,7.97
2022-12-23T15:55:49.416Z,5.75
2022-12-23T16:01:01.105Z,7.40
2022-12-23T16:03:38.144Z,10.70
2022-12-23T16:06:16.941Z,7.00
2022-12-23T16:08:44.606Z,6.90
2022-12-23T16:11:14.137Z,7.60
2022-12-23T16:13:46.669Z,5.22
2022-12-23T16:16:28.396Z,5.07
2022-12-23T16:18:54.977Z,5.13
2022-12-23T16:21:24.862Z,6.78
2022-12-23T16:23:53.229Z,4.97
2022-12-23T16:26:21.169Z,3.80
2022-12-23T16:28:54.236Z,3.53
2022-12-23T16:31:21.547Z,3.17
2022-12-23T16:33:57.076Z,3.97
2022-12-23T16:36:26.436Z,2.85
2022-12-23T16:38:53.345Z,3.15
2022-12-23T16:41:20.718Z,1.95
2022-12-23T16:43:51.925Z,3.58
2022-12-23T16:46:21.743Z,3.38
2022-12-23T16:48:55.621Z,2.17
2022-12-23T16:51:23.418Z,2.03
2022-12-23T16:53:52.385Z,1.60
2022-12-23T16:56:20.920Z,5.28
2022-12-23T16:58:47.862Z,3.95
2022-12-23T17:01:16.776Z,2.70
2022-12-23T17:03:43.301Z,3.85
2022-12-23T17:06:14.161Z,1.65
2022-12-23T17:08:41.392Z,2.22
2022-12-23T17:11:21.032Z,1.52
2022-12-23T17:13:47.547Z,2.67
2022-12-23T17:16:19.860Z,4.18
2022-12-23T17:18:50.624Z,1.80
2022-12-23T17:21:21.481Z,2.20
2022-12-23T17:23:50.949Z,3.75
2022-12-23T17:26:17.518Z,3.45
2022-12-23T17:28:44.424Z,3.88
2022-12-23T17:31:15.383Z,2.92
2022-12-23T17:33:43.610Z,2.30
2022-12-23T17:36:11.566Z,2.67
2022-12-23T17:38:38.398Z,4.15
2022-12-23T17:41:05.150Z,4.63
2022-12-23T17:43:31.755Z,6.30
2022-12-23T17:45:58.322Z,4.88
2022-12-23T17:48:31.206Z,6.43
2022-12-23T17:50:58.500Z,7.78
2022-12-23T17:53:25.033Z,8.27
2022-12-23T17:55:51.702Z,8.30
2022-12-23T17:58:18.172Z,5.90
2022-12-23T18:00:44.976Z,8.40
2022-12-23T18:03:23.246Z,7.57
2022-12-23T18:05:53.016Z,8.10
2022-12-23T18:08:23.847Z,5.85
2022-12-23T18:10:50.360Z,8.88
2022-12-23T18:13:19.593Z,9.25
2022-12-23T18:15:46.416Z,7.28
2022-12-23T18:18:27.240Z,7.13
2022-12-23T18:20:57.447Z,7.32
2022-12-23T18:23:29.345Z,7.15
2022-12-23T18:25:57.272Z,11.82
2022-12-23T18:28:25.323Z,8.18
2022-12-23T18:30:54.831Z,10.43
2022-12-23T18:33:21.868Z,10.77
2022-12-23T18:35:49.727Z,12.73
2022-12-23T18:38:17.596Z,13.85
2022-12-23T18:40:44.439Z,11.73
2022-12-23T18:43:23.122Z,13.13
2022-12-23T18:45:53.516Z,15.77
2022-12-23T18:48:21.605Z,15.32
2022-12-23T18:50:48.503Z,9.07
2022-12-23T18:53:25.206Z,11.15
2022-12-23T18:55:53.351Z,13.02
2022-12-23T18:58:20.390Z,10.13
2022-12-23T19:00:48.476Z,11.20
2022-12-23T19:03:25.325Z,12.88
2022-12-23T19:05:54.145Z,15.23
2022-12-23T19:08:26.601Z,19.17
2022-12-23T19:10:54.959Z,12.60
2022-12-23T19:13:21.609Z,12.77
2022-12-23T19:15:48.391Z,14.75
2022-12-23T19:18:17.166Z,16.50
2022-12-23T19:23:11.522Z,11.75
2022-12-23T19:25:50.746Z,14.50
2022-12-23T19:28:23.065Z,11.55
2022-12-23T19:30:50.012Z,23.35
2022-12-23T19:33:16.870Z,12.07
2022-12-23T19:35:44.293Z,19.52
2022-12-23T19:38:11.086Z,18.10
2022-12-23T19:40:38.009Z,17.50
2022-12-23T19:43:04.726Z,21.60
2022-12-23T19:45:31.392Z,14.00
2022-12-23T19:47:57.788Z,13.25
2022-12-23T19:50:26.289Z,19.27
2022-12-23T19:52:52.685Z,14.68
2022-12-23T19:55:20.263Z,18.85
2022-12-23T19:57:48.192Z,15.25
2022-12-23T20:00:16.076Z,16.35
2022-12-23T20:02:42.780Z,19.27
2022-12-23T20:05:10.078Z,13.48
2022-12-23T20:07:36.740Z,17.70
2022-12-23T20:10:05.126Z,16.13
2022-12-23T20:12:31.990Z,13.57
2022-12-23T20:14:58.617Z,16.75
2022-12-23T20:17:25.037Z,18.73
2022-12-23T20:19:51.823Z,20.92
2022-12-23T20:22:18.548Z,14.27
2022-12-23T20:24:45.543Z,16.08
2022-12-23T20:27:15.631Z,17.58
2022-12-23T20:29:42.808Z,21.52
2022-12-23T20:32:09.265Z,15.90
2022-12-23T20:34:39.606Z,18.33
2022-12-23T20:37:06.977Z,13.70
2022-12-23T20:39:33.627Z,17.48
2022-12-23T20:42:00.110Z,20.92
2022-12-23T20:44:36.047Z,24.42
2022-12-23T20:47:05.347Z,16.40
2022-12-23T20:51:58.363Z,15.00
2022-12-23T20:54:31.661Z,17.38
2022-12-23T20:56:58.983Z,19.35
2022-12-23T20:59:25.647Z,19.10
2022-12-23T21:01:52.270Z,17.17
2022-12-23T21:04:19.190Z,15.02
2022-12-23T21:06:46.079Z,17.35
2022-12-23T21:09:14.576Z,15.88
2022-12-23T21:11:43.604Z,16.42
2022-12-23T21:14:11.601Z,21.13
2022-12-23T21:16:40.430Z,13.30
2022-12-23T21:19:12.583Z,17.25
2022-12-23T21:21:39.165Z,17.88
2022-12-23T21:24:06.974Z,19.60
2022-12-23T21:26:34.970Z,18.42
2022-12-23T21:29:03.968Z,17.80
2022-12-23T21:31:33.619Z,17.10
2022-12-23T21:34:00.959Z,19.63
2022-12-23T21:36:30.941Z,16.25
2022-12-23T21:38:58.645Z,17.02
2022-12-23T21:41:28.580Z,18.30
2022-12-23T21:43:59.490Z,24.15
2022-12-23T21:46:28.174Z,16.17
2022-12-23T21:51:31.805Z,12.15
2022-12-23T21:54:03.490Z,14.32
2022-12-23T21:56:31.219Z,15.05
2022-12-23T21:58:59.916Z,18.85
2022-12-23T22:03:54.732Z,14.93
2022-12-23T22:06:24.821Z,19.27
2022-12-23T22:08:53.216Z,15.13
2022-12-23T22:11:25.989Z,14.02
2022-12-23T22:13:53.200Z,16.88
2022-12-23T22:16:22.717Z,15.48
2022-12-23T22:18:50.223Z,15.48
2022-12-23T22:21:21.651Z,13.65
2022-12-23T22:23:49.380Z,15.20
2022-12-23T22:26:24.718Z,21.65
2022-12-23T22:28:53.641Z,19.70
2022-12-23T22:31:29.946Z,13.48
2022-12-23T22:33:56.932Z,18.52
2022-12-23T22:36:23.584Z,24.85
2022-12-23T22:38:56.119Z,18.63
2022-12-23T22:41:23.931Z,16.00
2022-12-23T22:43:50.782Z,14.95
2022-12-23T22:46:18.457Z,13.02
2022-12-23T22:48:45.604Z,18.50
2022-12-23T22:51:18.351Z,18.80
2022-12-23T22:53:45.587Z,18.13
2022-12-23T22:56:14.582Z,15.95
2022-12-23T22:58:41.407Z,21.52
2022-12-23T23:01:19.265Z,24.15
2022-12-23T23:03:46.008Z,13.35
2022-12-23T23:06:12.583Z,14.50
2022-12-23T23:08:41.830Z,15.15
2022-12-23T23:11:08.267Z,14.63
2022-12-23T23:13:35.347Z,17.92
2022-12-23T23:16:02.712Z,19.00
2022-12-23T23:18:30.123Z,16.77
2022-12-23T23:20:56.907Z,18.13
2022-12-23T23:23:23.604Z,16.40
2022-12-23T23:25:50.584Z,17.73
2022-12-23T23:28:17.197Z,17.98
2022-12-23T23:30:44.209Z,17.98
2022-12-23T23:33:11.312Z,15.90
2022-12-23T23:35:37.920Z,16.00
2022-12-23T23:38:04.744Z,16.98
2022-12-23T23:40:31.210Z,15.13
2022-12-23T23:42:57.928Z,17.23
2022-12-23T23:45:24.575Z,14.95
2022-12-23T23:47:51.070Z,16.48
2022-12-23T23:50:18.998Z,18.92
2022-12-23T23:52:45.929Z,16.92
2022-12-23T23:55:12.695Z,13.45
2022-12-23T23:57:39.153Z,13.77
